sensor_id;sensor_type;location;lat;lon;timestamp;P1;durP1;ratioP1;P2;durP2;ratioP2
3329;SDS011;1677;49.576;10.990;2022-11-15T00:01:35;7.45;;;5.38;;
3329;SDS011;1677;49.576;10.990;2022-11-15T00:04:02;7.47;;;4.82;;
3329;SDS011;1677;49.576;10.990;2022-11-15T00:06:28;8.43;;;5.82;;
3329;SDS011;1677;49.576;10.990;2022-11-15T00:08:54;5.83;;;4.40;;
3329;SDS011;1677;49.576;10.990;2022-11-15T00:11:19;7.33;;;5.03;;
3329;SDS011;1677;49.576;10.990;2022-11-15T00:13:45;4.67;;;4.20;;
3329;SDS011;1677;49.576;10.990;2022-11-15T00:16:10;6.47;;;5.10;;
3329;SDS011;1677;49.576;10.990;2022-11-15T00:18:36;5.63;;;4.20;;
3329;SDS011;1677;49.576;10.990;2022-11-15T00:21:12;5.25;;;4.75;;
3329;SDS011;1677;49.576;10.990;2022-11-15T00:23:38;6.57;;;5.03;;
3329;SDS011;1677;49.576;10.990;2022-11-15T00:26:04;7.77;;;5.70;;
3329;SDS011;1677;49.576;10.990;2022-11-15T00:28:30;7.45;;;4.75;;
3329;SDS011;1677;49.576;10.990;2022-11-15T00:31:00;5.87;;;4.80;;
3329;SDS011;1677;49.576;10.990;2022-11-15T00:33:27;5.30;;;4.80;;
3329;SDS011;1677;49.576;10.990;2022-11-15T00:35:52;5.00;;;4.27;;
3329;SDS011;1677;49.576;10.990;2022-11-15T00:38:18;6.57;;;4.93;;
3329;SDS011;1677;49.576;10.990;2022-11-15T00:40:43;6.70;;;5.23;;
3329;SDS011;1677;49.576;10.990;2022-11-15T00:43:09;6.03;;;4.73;;
3329;SDS011;1677;49.576;10.990;2022-11-15T00:45:34;8.23;;;5.27;;
3329;SDS011;1677;49.576;10.990;2022-11-15T00:48:00;5.80;;;5.07;;
3329;SDS011;1677;49.576;10.990;2022-11-15T00:50:25;5.30;;;4.80;;
3329;SDS011;1677;49.576;10.990;2022-11-15T00:52:51;6.77;;;5.00;;
3329;SDS011;1677;49.576;10.990;2022-11-15T00:55:17;5.17;;;4.20;;
3329;SDS011;1677;49.576;10.990;2022-11-15T00:57:43;5.80;;;4.75;;
3329;SDS011;1677;49.576;10.990;2022-11-15T01:00:10;7.03;;;4.97;;
3329;SDS011;1677;49.576;10.990;2022-11-15T01:02:35;5.27;;;4.77;;
3329;SDS011;1677;49.576;10.990;2022-11-15T01:05:01;11.00;;;5.03;;
3329;SDS011;1677;49.576;10.990;2022-11-15T01:07:27;6.03;;;5.00;;
3329;SDS011;1677;49.576;10.990;2022-11-15T01:09:52;7.40;;;4.63;;
3329;SDS011;1677;49.576;10.990;2022-11-15T01:12:18;7.47;;;5.20;;
3329;SDS011;1677;49.576;10.990;2022-11-15T01:14:44;5.93;;;5.30;;
3329;SDS011;1677;49.576;10.990;2022-11-15T01:17:09;6.80;;;4.60;;
3329;SDS011;1677;49.576;10.990;2022-11-15T01:19:35;6.73;;;5.30;;
3329;SDS011;1677;49.576;10.990;2022-11-15T01:22:00;5.80;;;4.87;;
3329;SDS011;1677;49.576;10.990;2022-11-15T01:24:26;8.40;;;5.50;;
3329;SDS011;1677;49.576;10.990;2022-11-15T01:26:52;6.83;;;6.00;;
3329;SDS011;1677;49.576;10.990;2022-11-15T01:29:17;6.77;;;5.27;;
3329;SDS011;1677;49.576;10.990;2022-11-15T01:31:43;6.53;;;5.53;;
3329;SDS011;1677;49.576;10.990;2022-11-15T01:34:08;6.57;;;5.40;;
3329;SDS011;1677;49.576;10.990;2022-11-15T01:36:34;6.63;;;5.20;;
3329;SDS011;1677;49.576;10.990;2022-11-15T01:38:59;6.70;;;5.10;;
3329;SDS011;1677;49.576;10.990;2022-11-15T01:41:27;6.13;;;4.70;;
3329;SDS011;1677;49.576;10.990;2022-11-15T01:43:57;8.40;;;6.55;;
3329;SDS011;1677;49.576;10.990;2022-11-15T01:47:12;5.20;;;4.70;;
3329;SDS011;1677;49.576;10.990;2022-11-15T01:49:43;5.82;;;4.93;;
3329;SDS011;1677;49.576;10.990;2022-11-15T01:52:17;6.00;;;5.40;;
3329;SDS011;1677;49.576;10.990;2022-11-15T01:54:45;5.90;;;5.30;;
3329;SDS011;1677;49.576;10.990;2022-11-15T01:57:13;6.30;;;5.70;;
3329;SDS011;1677;49.576;10.990;2022-11-15T01:59:39;7.93;;;6.10;;
3329;SDS011;1677;49.576;10.990;2022-11-15T02:02:08;6.35;;;5.40;;
3329;SDS011;1677;49.576;10.990;2022-11-15T02:04:35;5.93;;;5.00;;
3329;SDS011;1677;49.576;10.990;2022-11-15T02:07:05;5.85;;;5.05;;
3329;SDS011;1677;49.576;10.990;2022-11-15T02:09:33;5.35;;;4.85;;
3329;SDS011;1677;49.576;10.990;2022-11-15T02:12:01;6.30;;;5.50;;
3329;SDS011;1677;49.576;10.990;2022-11-15T02:14:27;7.05;;;4.97;;
3329;SDS011;1677;49.576;10.990;2022-11-15T02:29:04;6.68;;;5.47;;
3329;SDS011;1677;49.576;10.990;2022-11-15T02:31:40;5.60;;;4.50;;
3329;SDS011;1677;49.576;10.990;2022-11-15T02:34:35;6.28;;;5.32;;
3329;SDS011;1677;49.576;10.990;2022-11-15T02:37:34;6.53;;;5.22;;
3329;SDS011;1677;49.576;10.990;2022-11-15T02:40:55;8.13;;;5.30;;
3329;SDS011;1677;49.576;10.990;2022-11-15T02:43:13;6.10;;;5.50;;
3329;SDS011;1677;49.576;10.990;2022-11-15T02:46:11;4.75;;;4.25;;
3329;SDS011;1677;49.576;10.990;2022-11-15T02:49:19;6.07;;;5.50;;
3329;SDS011;1677;49.576;10.990;2022-11-15T02:51:45;7.13;;;5.85;;
3329;SDS011;1677;49.576;10.990;2022-11-15T02:54:14;7.30;;;5.25;;
3329;SDS011;1677;49.576;10.990;2022-11-15T02:56:45;5.80;;;5.20;;
3329;SDS011;1677;49.576;10.990;2022-11-15T03:07:42;5.72;;;5.07;;
3329;SDS011;1677;49.576;10.990;2022-11-15T03:10:13;6.25;;;5.38;;
3329;SDS011;1677;49.576;10.990;2022-11-15T03:12:58;7.32;;;4.85;;
3329;SDS011;1677;49.576;10.990;2022-11-15T03:15:49;7.00;;;5.65;;
3329;SDS011;1677;49.576;10.990;2022-11-15T03:18:25;7.03;;;5.63;;
3329;SDS011;1677;49.576;10.990;2022-11-15T03:21:12;7.50;;;5.22;;
3329;SDS011;1677;49.576;10.990;2022-11-15T03:23:40;6.05;;;5.43;;
3329;SDS011;1677;49.576;10.990;2022-11-15T03:26:08;6.00;;;5.18;;
3329;SDS011;1677;49.576;10.990;2022-11-15T03:28:41;6.35;;;4.95;;
3329;SDS011;1677;49.576;10.990;2022-11-15T03:31:17;7.20;;;6.50;;
3329;SDS011;1677;49.576;10.990;2022-11-15T03:34:04;8.88;;;5.80;;
3329;SDS011;1677;49.576;10.990;2022-11-15T03:36:34;8.32;;;5.97;;
3329;SDS011;1677;49.576;10.990;2022-11-15T03:39:02;9.33;;;6.30;;
3329;SDS011;1677;49.576;10.990;2022-11-15T03:41:43;8.45;;;7.05;;
3329;SDS011;1677;49.576;10.990;2022-11-15T03:46:57;5.10;;;4.60;;
3329;SDS011;1677;49.576;10.990;2022-11-15T03:49:32;7.47;;;6.05;;
3329;SDS011;1677;49.576;10.990;2022-11-15T03:51:59;5.65;;;4.65;;
3329;SDS011;1677;49.576;10.990;2022-11-15T03:54:26;6.03;;;5.43;;
3329;SDS011;1677;49.576;10.990;2022-11-15T03:56:52;6.20;;;5.50;;
3329;SDS011;1677;49.576;10.990;2022-11-15T03:59:17;6.47;;;4.97;;
3329;SDS011;1677;49.576;10.990;2022-11-15T04:01:43;5.27;;;4.63;;
3329;SDS011;1677;49.576;10.990;2022-11-15T04:04:08;5.57;;;4.60;;
3329;SDS011;1677;49.576;10.990;2022-11-15T04:06:34;6.17;;;5.57;;
3329;SDS011;1677;49.576;10.990;2022-11-15T04:09:00;9.32;;;5.15;;
3329;SDS011;1677;49.576;10.990;2022-11-15T04:11:25;7.60;;;5.20;;
3329;SDS011;1677;49.576;10.990;2022-11-15T04:13:51;5.30;;;4.53;;
3329;SDS011;1677;49.576;10.990;2022-11-15T04:16:16;5.93;;;5.10;;
3329;SDS011;1677;49.576;10.990;2022-11-15T04:18:42;5.10;;;4.10;;
3329;SDS011;1677;49.576;10.990;2022-11-15T04:21:08;6.60;;;4.30;;
3329;SDS011;1677;49.576;10.990;2022-11-15T04:23:52;10.43;;;7.57;;
3329;SDS011;1677;49.576;10.990;2022-11-15T04:26:18;4.90;;;4.37;;
3329;SDS011;1677;49.576;10.990;2022-11-15T04:28:46;7.38;;;5.00;;
3329;SDS011;1677;49.576;10.990;2022-11-15T04:31:30;6.35;;;5.70;;
3329;SDS011;1677;49.576;10.990;2022-11-15T04:33:56;6.83;;;5.50;;
3329;SDS011;1677;49.576;10.990;2022-11-15T04:36:22;6.70;;;5.65;;
3329;SDS011;1677;49.576;10.990;2022-11-15T04:39:06;6.47;;;5.45;;
3329;SDS011;1677;49.576;10.990;2022-11-15T04:41:32;6.80;;;5.93;;
3329;SDS011;1677;49.576;10.990;2022-11-15T04:43:58;6.70;;;5.17;;
3329;SDS011;1677;49.576;10.990;2022-11-15T04:46:24;6.53;;;5.73;;
3329;SDS011;1677;49.576;10.990;2022-11-15T04:48:52;6.75;;;5.20;;
3329;SDS011;1677;49.576;10.990;2022-11-15T04:51:18;9.25;;;5.50;;
3329;SDS011;1677;49.576;10.990;2022-11-15T04:53:44;7.20;;;6.27;;
3329;SDS011;1677;49.576;10.990;2022-11-15T04:56:10;5.03;;;4.50;;
3329;SDS011;1677;49.576;10.990;2022-11-15T04:58:36;7.28;;;5.35;;
3329;SDS011;1677;49.576;10.990;2022-11-15T05:01:08;5.37;;;4.87;;
3329;SDS011;1677;49.576;10.990;2022-11-15T05:03:34;4.85;;;4.38;;
3329;SDS011;1677;49.576;10.990;2022-11-15T05:06:18;8.20;;;5.63;;
3329;SDS011;1677;49.576;10.990;2022-11-15T05:08:44;6.80;;;4.80;;
3329;SDS011;1677;49.576;10.990;2022-11-15T05:11:10;6.30;;;5.67;;
3329;SDS011;1677;49.576;10.990;2022-11-15T05:13:35;8.37;;;5.93;;
3329;SDS011;1677;49.576;10.990;2022-11-15T05:16:01;12.30;;;6.10;;
3329;SDS011;1677;49.576;10.990;2022-11-15T05:18:26;8.13;;;5.60;;
3329;SDS011;1677;49.576;10.990;2022-11-15T05:20:52;5.70;;;4.77;;
3329;SDS011;1677;49.576;10.990;2022-11-15T05:23:17;6.20;;;5.40;;
3329;SDS011;1677;49.576;10.990;2022-11-15T05:25:43;8.73;;;5.50;;
3329;SDS011;1677;49.576;10.990;2022-11-15T05:28:08;5.10;;;4.60;;
3329;SDS011;1677;49.576;10.990;2022-11-15T05:30:34;7.17;;;5.33;;
3329;SDS011;1677;49.576;10.990;2022-11-15T05:33:00;6.80;;;5.80;;
3329;SDS011;1677;49.576;10.990;2022-11-15T05:35:37;10.90;;;7.00;;
3329;SDS011;1677;49.576;10.990;2022-11-15T05:38:05;7.13;;;5.85;;
3329;SDS011;1677;49.576;10.990;2022-11-15T05:40:30;8.43;;;6.03;;
3329;SDS011;1677;49.576;10.990;2022-11-15T05:42:57;6.85;;;5.28;;
3329;SDS011;1677;49.576;10.990;2022-11-15T05:45:26;8.20;;;5.10;;
3329;SDS011;1677;49.576;10.990;2022-11-15T05:47:51;5.77;;;4.90;;
3329;SDS011;1677;49.576;10.990;2022-11-15T05:50:21;7.30;;;5.65;;
3329;SDS011;1677;49.576;10.990;2022-11-15T05:52:47;8.95;;;5.65;;
3329;SDS011;1677;49.576;10.990;2022-11-15T05:55:13;6.27;;;5.20;;
3329;SDS011;1677;49.576;10.990;2022-11-15T05:57:39;9.50;;;5.88;;
3329;SDS011;1677;49.576;10.990;2022-11-15T06:00:05;7.43;;;6.40;;
3329;SDS011;1677;49.576;10.990;2022-11-15T06:02:32;8.50;;;5.47;;
3329;SDS011;1677;49.576;10.990;2022-11-15T06:04:58;6.50;;;5.07;;
3329;SDS011;1677;49.576;10.990;2022-11-15T06:07:24;6.17;;;5.57;;
3329;SDS011;1677;49.576;10.990;2022-11-15T06:09:49;6.63;;;5.80;;
3329;SDS011;1677;49.576;10.990;2022-11-15T06:12:15;5.47;;;4.77;;
3329;SDS011;1677;49.576;10.990;2022-11-15T06:14:40;8.80;;;6.70;;
3329;SDS011;1677;49.576;10.990;2022-11-15T06:17:06;7.83;;;5.23;;
3329;SDS011;1677;49.576;10.990;2022-11-15T06:19:31;8.60;;;6.07;;
3329;SDS011;1677;49.576;10.990;2022-11-15T06:22:00;7.05;;;6.35;;
3329;SDS011;1677;49.576;10.990;2022-11-15T06:24:25;7.45;;;6.75;;
3329;SDS011;1677;49.576;10.990;2022-11-15T06:26:51;8.60;;;6.93;;
3329;SDS011;1677;49.576;10.990;2022-11-15T06:29:17;7.83;;;6.60;;
3329;SDS011;1677;49.576;10.990;2022-11-15T06:31:42;15.60;;;9.57;;
3329;SDS011;1677;49.576;10.990;2022-11-15T06:34:08;9.03;;;7.90;;
3329;SDS011;1677;49.576;10.990;2022-11-15T06:36:34;9.90;;;7.73;;
3329;SDS011;1677;49.576;10.990;2022-11-15T06:39:01;9.55;;;8.55;;
3329;SDS011;1677;49.576;10.990;2022-11-15T06:41:29;9.93;;;7.38;;
3329;SDS011;1677;49.576;10.990;2022-11-15T06:43:56;10.03;;;7.80;;
3329;SDS011;1677;49.576;10.990;2022-11-15T06:46:22;13.05;;;8.27;;
3329;SDS011;1677;49.576;10.990;2022-11-15T06:48:49;11.27;;;9.00;;
3329;SDS011;1677;49.576;10.990;2022-11-15T06:51:16;11.85;;;7.20;;
3329;SDS011;1677;49.576;10.990;2022-11-15T06:53:41;8.03;;;7.23;;
3329;SDS011;1677;49.576;10.990;2022-11-15T06:56:07;11.73;;;7.60;;
3329;SDS011;1677;49.576;10.990;2022-11-15T06:58:33;8.30;;;6.60;;
3329;SDS011;1677;49.576;10.990;2022-11-15T07:01:16;8.00;;;6.07;;
3329;SDS011;1677;49.576;10.990;2022-11-15T07:03:42;9.50;;;7.53;;
3329;SDS011;1677;49.576;10.990;2022-11-15T07:06:08;7.80;;;6.60;;
3329;SDS011;1677;49.576;10.990;2022-11-15T07:08:35;10.27;;;7.30;;
3329;SDS011;1677;49.576;10.990;2022-11-15T07:11:02;11.23;;;7.78;;
3329;SDS011;1677;49.576;10.990;2022-11-15T07:13:30;9.52;;;7.60;;
3329;SDS011;1677;49.576;10.990;2022-11-15T07:15:58;10.48;;;6.90;;
3329;SDS011;1677;49.576;10.990;2022-11-15T07:18:26;9.90;;;7.82;;
3329;SDS011;1677;49.576;10.990;2022-11-15T07:20:52;8.73;;;7.07;;
3329;SDS011;1677;49.576;10.990;2022-11-15T07:23:18;9.73;;;8.10;;
3329;SDS011;1677;49.576;10.990;2022-11-15T07:25:43;10.50;;;8.60;;
3329;SDS011;1677;49.576;10.990;2022-11-15T07:28:09;12.70;;;10.33;;
3329;SDS011;1677;49.576;10.990;2022-11-15T07:30:35;11.83;;;9.97;;
3329;SDS011;1677;49.576;10.990;2022-11-15T07:33:00;9.90;;;8.67;;
3329;SDS011;1677;49.576;10.990;2022-11-15T07:35:26;14.90;;;12.30;;
3329;SDS011;1677;49.576;10.990;2022-11-15T07:37:56;14.05;;;10.25;;
3329;SDS011;1677;49.576;10.990;2022-11-15T07:40:24;11.93;;;9.68;;
3329;SDS011;1677;49.576;10.990;2022-11-15T07:42:51;9.85;;;7.45;;
3329;SDS011;1677;49.576;10.990;2022-11-15T07:45:20;10.90;;;7.93;;
3329;SDS011;1677;49.576;10.990;2022-11-15T07:47:51;7.65;;;6.85;;
3329;SDS011;1677;49.576;10.990;2022-11-15T07:50:17;12.80;;;7.88;;
3329;SDS011;1677;49.576;10.990;2022-11-15T07:52:43;9.73;;;6.73;;
3329;SDS011;1677;49.576;10.990;2022-11-15T07:55:09;9.20;;;6.72;;
3329;SDS011;1677;49.576;10.990;2022-11-15T07:57:35;10.30;;;6.83;;
3329;SDS011;1677;49.576;10.990;2022-11-15T08:00:02;7.70;;;6.90;;
3329;SDS011;1677;49.576;10.990;2022-11-15T08:02:28;8.90;;;6.80;;
3329;SDS011;1677;49.576;10.990;2022-11-15T08:04:54;7.90;;;6.13;;
3329;SDS011;1677;49.576;10.990;2022-11-15T08:07:19;18.43;;;9.00;;
3329;SDS011;1677;49.576;10.990;2022-11-15T08:09:45;12.00;;;7.97;;
3329;SDS011;1677;49.576;10.990;2022-11-15T08:12:10;10.97;;;6.80;;
3329;SDS011;1677;49.576;10.990;2022-11-15T08:14:36;9.43;;;6.33;;
3329;SDS011;1677;49.576;10.990;2022-11-15T08:17:02;12.90;;;6.70;;
3329;SDS011;1677;49.576;10.990;2022-11-15T08:19:27;12.93;;;6.70;;
3329;SDS011;1677;49.576;10.990;2022-11-15T08:21:53;7.83;;;6.37;;
3329;SDS011;1677;49.576;10.990;2022-11-15T08:24:18;15.57;;;6.80;;
3329;SDS011;1677;49.576;10.990;2022-11-15T08:26:45;7.23;;;6.40;;
3329;SDS011;1677;49.576;10.990;2022-11-15T08:29:11;13.40;;;8.30;;
3329;SDS011;1677;49.576;10.990;2022-11-15T08:31:36;10.97;;;8.23;;
3329;SDS011;1677;49.576;10.990;2022-11-15T08:34:02;10.20;;;7.73;;
3329;SDS011;1677;49.576;10.990;2022-11-15T08:36:29;14.33;;;11.10;;
3329;SDS011;1677;49.576;10.990;2022-11-15T08:38:54;12.47;;;9.43;;
3329;SDS011;1677;49.576;10.990;2022-11-15T08:41:36;9.57;;;7.80;;
3329;SDS011;1677;49.576;10.990;2022-11-15T08:44:02;9.57;;;7.97;;
3329;SDS011;1677;49.576;10.990;2022-11-15T08:46:27;9.00;;;7.60;;
3329;SDS011;1677;49.576;10.990;2022-11-15T08:48:53;11.63;;;7.67;;
3329;SDS011;1677;49.576;10.990;2022-11-15T08:51:19;6.47;;;5.87;;
3329;SDS011;1677;49.576;10.990;2022-11-15T08:53:44;7.57;;;6.53;;
3329;SDS011;1677;49.576;10.990;2022-11-15T08:56:11;8.60;;;7.30;;
3329;SDS011;1677;49.576;10.990;2022-11-15T08:58:38;9.40;;;6.80;;
3329;SDS011;1677;49.576;10.990;2022-11-15T09:01:04;7.10;;;6.30;;
3329;SDS011;1677;49.576;10.990;2022-11-15T09:03:30;10.80;;;7.20;;
3329;SDS011;1677;49.576;10.990;2022-11-15T09:05:57;7.50;;;6.73;;
3329;SDS011;1677;49.576;10.990;2022-11-15T09:08:24;10.33;;;7.00;;
3329;SDS011;1677;49.576;10.990;2022-11-15T09:10:51;7.13;;;6.27;;
3329;SDS011;1677;49.576;10.990;2022-11-15T09:13:16;10.50;;;7.30;;
3329;SDS011;1677;49.576;10.990;2022-11-15T09:15:42;7.73;;;6.47;;
3329;SDS011;1677;49.576;10.990;2022-11-15T09:18:08;8.07;;;6.90;;
3329;SDS011;1677;49.576;10.990;2022-11-15T09:20:33;9.40;;;6.63;;
3329;SDS011;1677;49.576;10.990;2022-11-15T09:23:00;7.57;;;5.83;;
3329;SDS011;1677;49.576;10.990;2022-11-15T09:25:26;12.60;;;6.63;;
3329;SDS011;1677;49.576;10.990;2022-11-15T09:27:52;8.23;;;6.65;;
3329;SDS011;1677;49.576;10.990;2022-11-15T09:30:17;9.23;;;5.70;;
3329;SDS011;1677;49.576;10.990;2022-11-15T09:32:43;8.93;;;6.77;;
3329;SDS011;1677;49.576;10.990;2022-11-15T09:35:08;8.53;;;5.87;;
3329;SDS011;1677;49.576;10.990;2022-11-15T09:37:34;10.00;;;6.30;;
3329;SDS011;1677;49.576;10.990;2022-11-15T09:40:00;10.37;;;6.23;;
3329;SDS011;1677;49.576;10.990;2022-11-15T09:45:34;6.20;;;5.63;;
3329;SDS011;1677;49.576;10.990;2022-11-15T09:48:15;9.45;;;5.53;;
3329;SDS011;1677;49.576;10.990;2022-11-15T09:51:08;5.87;;;5.27;;
3329;SDS011;1677;49.576;10.990;2022-11-15T09:53:46;14.83;;;7.00;;
3329;SDS011;1677;49.576;10.990;2022-11-15T09:56:21;7.97;;;5.60;;
3329;SDS011;1677;49.576;10.990;2022-11-15T10:04:06;9.13;;;6.23;;
3329;SDS011;1677;49.576;10.990;2022-11-15T10:06:32;7.30;;;6.50;;
3329;SDS011;1677;49.576;10.990;2022-11-15T10:09:13;10.43;;;7.17;;
3329;SDS011;1677;49.576;10.990;2022-11-15T10:11:50;8.30;;;6.13;;
3329;SDS011;1677;49.576;10.990;2022-11-15T10:14:19;7.93;;;5.83;;
3329;SDS011;1677;49.576;10.990;2022-11-15T10:17:06;5.50;;;5.00;;
3329;SDS011;1677;49.576;10.990;2022-11-15T10:22:54;11.70;;;6.70;;
3329;SDS011;1677;49.576;10.990;2022-11-15T10:25:28;8.70;;;5.27;;
3329;SDS011;1677;49.576;10.990;2022-11-15T10:27:57;11.30;;;6.83;;
3329;SDS011;1677;49.576;10.990;2022-11-15T10:30:36;8.60;;;5.77;;
3329;SDS011;1677;49.576;10.990;2022-11-15T10:35:44;8.20;;;5.77;;
3329;SDS011;1677;49.576;10.990;2022-11-15T10:38:10;7.10;;;5.70;;
3329;SDS011;1677;49.576;10.990;2022-11-15T10:40:37;5.20;;;4.60;;
3329;SDS011;1677;49.576;10.990;2022-11-15T10:45:40;5.20;;;4.70;;
3329;SDS011;1677;49.576;10.990;2022-11-15T10:50:37;6.23;;;5.30;;
3329;SDS011;1677;49.576;10.990;2022-11-15T10:53:04;6.93;;;5.57;;
3329;SDS011;1677;49.576;10.990;2022-11-15T10:55:50;5.77;;;4.20;;
3329;SDS011;1677;49.576;10.990;2022-11-15T10:58:32;4.47;;;4.07;;
3329;SDS011;1677;49.576;10.990;2022-11-15T11:04:13;7.57;;;4.83;;
3329;SDS011;1677;49.576;10.990;2022-11-15T11:06:52;6.23;;;5.43;;
3329;SDS011;1677;49.576;10.990;2022-11-15T11:09:43;7.53;;;4.20;;
3329;SDS011;1677;49.576;10.990;2022-11-15T11:12:11;4.60;;;3.87;;
3329;SDS011;1677;49.576;10.990;2022-11-15T11:14:37;5.27;;;4.03;;
3329;SDS011;1677;49.576;10.990;2022-11-15T11:25:30;4.53;;;4.00;;
3329;SDS011;1677;49.576;10.990;2022-11-15T11:41:59;5.63;;;3.37;;
3329;SDS011;1677;49.576;10.990;2022-11-15T11:44:45;3.67;;;2.93;;
3329;SDS011;1677;49.576;10.990;2022-11-15T11:47:36;4.57;;;3.40;;
3329;SDS011;1677;49.576;10.990;2022-11-15T11:50:16;4.40;;;3.63;;
3329;SDS011;1677;49.576;10.990;2022-11-15T11:55:42;5.70;;;4.27;;
3329;SDS011;1677;49.576;10.990;2022-11-15T11:58:16;4.03;;;3.67;;
3329;SDS011;1677;49.576;10.990;2022-11-15T12:00:47;4.50;;;3.20;;
3329;SDS011;1677;49.576;10.990;2022-11-15T12:06:02;4.33;;;3.23;;
3329;SDS011;1677;49.576;10.990;2022-11-15T12:08:53;3.23;;;2.77;;
3329;SDS011;1677;49.576;10.990;2022-11-15T12:17:05;3.57;;;3.27;;
3329;SDS011;1677;49.576;10.990;2022-11-15T12:19:33;7.70;;;4.30;;
3329;SDS011;1677;49.576;10.990;2022-11-15T12:24:29;4.43;;;3.60;;
3329;SDS011;1677;49.576;10.990;2022-11-15T12:29:54;6.77;;;4.40;;
3329;SDS011;1677;49.576;10.990;2022-11-15T12:32:27;4.70;;;3.87;;
3329;SDS011;1677;49.576;10.990;2022-11-15T12:35:00;6.80;;;3.83;;
3329;SDS011;1677;49.576;10.990;2022-11-15T12:42:35;5.03;;;3.60;;
3329;SDS011;1677;49.576;10.990;2022-11-15T12:45:01;3.97;;;3.60;;
3329;SDS011;1677;49.576;10.990;2022-11-15T12:47:26;5.63;;;3.90;;
3329;SDS011;1677;49.576;10.990;2022-11-15T12:49:52;5.67;;;3.60;;
3329;SDS011;1677;49.576;10.990;2022-11-15T12:52:18;8.17;;;4.40;;
3329;SDS011;1677;49.576;10.990;2022-11-15T12:54:51;5.93;;;3.77;;
3329;SDS011;1677;49.576;10.990;2022-11-15T12:59:55;6.30;;;3.97;;
3329;SDS011;1677;49.576;10.990;2022-11-15T13:22:42;10.17;;;6.33;;
3329;SDS011;1677;49.576;10.990;2022-11-15T13:27:47;4.23;;;3.80;;
3329;SDS011;1677;49.576;10.990;2022-11-15T13:30:25;5.60;;;4.73;;
3329;SDS011;1677;49.576;10.990;2022-11-15T13:32:52;5.93;;;3.80;;
3329;SDS011;1677;49.576;10.990;2022-11-15T13:35:23;6.03;;;4.60;;
3329;SDS011;1677;49.576;10.990;2022-11-15T13:37:50;5.00;;;3.80;;
3329;SDS011;1677;49.576;10.990;2022-11-15T13:42:55;7.70;;;3.43;;
3329;SDS011;1677;49.576;10.990;2022-11-15T13:45:21;6.53;;;3.67;;
3329;SDS011;1677;49.576;10.990;2022-11-15T13:47:51;4.53;;;3.93;;
3329;SDS011;1677;49.576;10.990;2022-11-15T13:50:22;4.40;;;3.63;;
3329;SDS011;1677;49.576;10.990;2022-11-15T13:52:52;5.83;;;4.10;;
3329;SDS011;1677;49.576;10.990;2022-11-15T13:55:22;6.57;;;5.80;;
3329;SDS011;1677;49.576;10.990;2022-11-15T13:57:50;7.87;;;4.83;;
3329;SDS011;1677;49.576;10.990;2022-11-15T14:00:33;8.37;;;4.80;;
3329;SDS011;1677;49.576;10.990;2022-11-15T14:03:07;6.00;;;4.50;;
3329;SDS011;1677;49.576;10.990;2022-11-15T14:08:31;4.53;;;3.83;;
3329;SDS011;1677;49.576;10.990;2022-11-15T14:11:13;4.40;;;3.50;;
3329;SDS011;1677;49.576;10.990;2022-11-15T14:13:41;7.80;;;3.53;;
3329;SDS011;1677;49.576;10.990;2022-11-15T14:16:23;5.00;;;3.40;;
3329;SDS011;1677;49.576;10.990;2022-11-15T14:19:05;5.40;;;3.30;;
3329;SDS011;1677;49.576;10.990;2022-11-15T14:21:31;7.70;;;4.57;;
3329;SDS011;1677;49.576;10.990;2022-11-15T14:24:16;5.63;;;3.43;;
3329;SDS011;1677;49.576;10.990;2022-11-15T14:26:42;5.80;;;3.60;;
3329;SDS011;1677;49.576;10.990;2022-11-15T14:31:54;6.60;;;3.17;;
3329;SDS011;1677;49.576;10.990;2022-11-15T14:37:30;3.63;;;2.87;;
3329;SDS011;1677;49.576;10.990;2022-11-15T14:40:01;5.60;;;2.70;;
3329;SDS011;1677;49.576;10.990;2022-11-15T14:42:28;5.50;;;2.60;;
3329;SDS011;1677;49.576;10.990;2022-11-15T14:44:54;5.37;;;3.50;;
3329;SDS011;1677;49.576;10.990;2022-11-15T14:47:19;5.30;;;4.13;;
3329;SDS011;1677;49.576;10.990;2022-11-15T14:49:45;5.03;;;3.47;;
3329;SDS011;1677;49.576;10.990;2022-11-15T14:52:24;5.30;;;4.07;;
3329;SDS011;1677;49.576;10.990;2022-11-15T14:54:53;5.80;;;3.90;;
3329;SDS011;1677;49.576;10.990;2022-11-15T14:57:19;4.77;;;3.20;;
3329;SDS011;1677;49.576;10.990;2022-11-15T14:59:45;5.00;;;3.20;;
3329;SDS011;1677;49.576;10.990;2022-11-15T15:02:15;3.97;;;2.90;;
3329;SDS011;1677;49.576;10.990;2022-11-15T15:04:43;7.37;;;4.20;;
3329;SDS011;1677;49.576;10.990;2022-11-15T15:07:09;3.00;;;2.80;;
3329;SDS011;1677;49.576;10.990;2022-11-15T15:09:34;8.30;;;3.93;;
3329;SDS011;1677;49.576;10.990;2022-11-15T15:12:00;4.70;;;3.30;;
3329;SDS011;1677;49.576;10.990;2022-11-15T15:14:25;4.70;;;3.50;;
3329;SDS011;1677;49.576;10.990;2022-11-15T15:16:51;4.70;;;3.70;;
3329;SDS011;1677;49.576;10.990;2022-11-15T15:19:17;3.93;;;3.57;;
3329;SDS011;1677;49.576;10.990;2022-11-15T15:21:42;5.93;;;2.90;;
3329;SDS011;1677;49.576;10.990;2022-11-15T15:24:11;4.77;;;3.63;;
3329;SDS011;1677;49.576;10.990;2022-11-15T15:26:39;3.77;;;3.20;;
3329;SDS011;1677;49.576;10.990;2022-11-15T15:29:05;5.00;;;3.50;;
3329;SDS011;1677;49.576;10.990;2022-11-15T15:31:31;4.43;;;3.70;;
3329;SDS011;1677;49.576;10.990;2022-11-15T15:33:58;7.10;;;3.80;;
3329;SDS011;1677;49.576;10.990;2022-11-15T15:36:23;8.17;;;4.40;;
3329;SDS011;1677;49.576;10.990;2022-11-15T15:38:49;7.93;;;4.10;;
3329;SDS011;1677;49.576;10.990;2022-11-15T15:41:15;5.50;;;3.80;;
3329;SDS011;1677;49.576;10.990;2022-11-15T15:43:41;5.80;;;4.10;;
3329;SDS011;1677;49.576;10.990;2022-11-15T15:48:33;4.90;;;4.40;;
3329;SDS011;1677;49.576;10.990;2022-11-15T15:51:02;8.80;;;4.10;;
3329;SDS011;1677;49.576;10.990;2022-11-15T15:53:27;5.13;;;3.93;;
3329;SDS011;1677;49.576;10.990;2022-11-15T15:55:53;4.50;;;3.63;;
3329;SDS011;1677;49.576;10.990;2022-11-15T15:58:19;7.37;;;3.90;;
3329;SDS011;1677;49.576;10.990;2022-11-15T16:00:44;6.10;;;4.60;;
3329;SDS011;1677;49.576;10.990;2022-11-15T16:03:10;6.90;;;4.47;;
3329;SDS011;1677;49.576;10.990;2022-11-15T16:05:35;8.60;;;4.57;;
3329;SDS011;1677;49.576;10.990;2022-11-15T16:08:01;13.30;;;4.97;;
3329;SDS011;1677;49.576;10.990;2022-11-15T16:10:28;6.63;;;4.50;;
3329;SDS011;1677;49.576;10.990;2022-11-15T16:12:56;6.17;;;4.57;;
3329;SDS011;1677;49.576;10.990;2022-11-15T16:15:24;5.07;;;4.20;;
3329;SDS011;1677;49.576;10.990;2022-11-15T16:17:52;5.63;;;5.05;;
3329;SDS011;1677;49.576;10.990;2022-11-15T16:22:53;6.07;;;4.93;;
3329;SDS011;1677;49.576;10.990;2022-11-15T16:25:18;7.17;;;5.30;;
3329;SDS011;1677;49.576;10.990;2022-11-15T16:27:44;6.13;;;4.93;;
3329;SDS011;1677;49.576;10.990;2022-11-15T16:30:14;8.83;;;5.60;;
3329;SDS011;1677;49.576;10.990;2022-11-15T16:32:41;7.83;;;5.47;;
3329;SDS011;1677;49.576;10.990;2022-11-15T16:35:10;6.60;;;5.90;;
3329;SDS011;1677;49.576;10.990;2022-11-15T16:37:37;8.00;;;6.43;;
3329;SDS011;1677;49.576;10.990;2022-11-15T16:40:05;10.83;;;6.27;;
3329;SDS011;1677;49.576;10.990;2022-11-15T16:42:49;14.70;;;7.93;;
3329;SDS011;1677;49.576;10.990;2022-11-15T16:45:14;7.97;;;6.50;;
3329;SDS011;1677;49.576;10.990;2022-11-15T16:47:40;9.53;;;7.97;;
3329;SDS011;1677;49.576;10.990;2022-11-15T16:50:06;10.17;;;7.77;;
3329;SDS011;1677;49.576;10.990;2022-11-15T16:52:42;11.90;;;8.70;;
3329;SDS011;1677;49.576;10.990;2022-11-15T16:55:08;9.40;;;6.87;;
3329;SDS011;1677;49.576;10.990;2022-11-15T16:57:33;7.40;;;6.70;;
3329;SDS011;1677;49.576;10.990;2022-11-15T16:59:59;7.00;;;6.20;;
3329;SDS011;1677;49.576;10.990;2022-11-15T17:02:24;6.40;;;5.47;;
3329;SDS011;1677;49.576;10.990;2022-11-15T17:04:50;8.20;;;6.80;;
3329;SDS011;1677;49.576;10.990;2022-11-15T17:07:15;8.47;;;6.23;;
3329;SDS011;1677;49.576;10.990;2022-11-15T17:09:41;6.67;;;5.90;;
3329;SDS011;1677;49.576;10.990;2022-11-15T17:12:07;6.13;;;5.13;;
3329;SDS011;1677;49.576;10.990;2022-11-15T17:14:33;6.28;;;5.15;;
3329;SDS011;1677;49.576;10.990;2022-11-15T17:16:58;9.70;;;5.47;;
3329;SDS011;1677;49.576;10.990;2022-11-15T17:19:24;9.13;;;4.83;;
3329;SDS011;1677;49.576;10.990;2022-11-15T17:21:50;7.40;;;5.13;;
3329;SDS011;1677;49.576;10.990;2022-11-15T17:24:15;6.20;;;4.63;;